Time;durP1;ratioP1;P1;durP2;ratioP2;P2;SDS_P1;SDS_P2;PMS_P1;PMS_P2;Temp;Humidity;BMP_temperature;BMP_pressure;BME280_temperature;BME280_humidity;BME280_pressure;Samples;Min_cycle;Max_cycle;Signal;HPM_P1;HPM_P2
2022/01/31 00:00:11;;;;;;;10.60;4.10;;;;;;;1.38;100.00;98641.00;5096693;28;20626;-68
2022/01/31 00:02:37;;;;;;;11.33;4.13;;;;;;;1.44;100.00;98640.84;5099061;28;20217;-68
2022/01/31 00:05:05;;;;;;;9.33;4.40;;;;;;;1.39;100.00;98624.47;5082873;28;20571;-68
2022/01/31 00:07:33;;;;;;;11.57;4.43;;;;;;;1.41;100.00;98630.47;5094986;28;20552;-68
2022/01/31 00:09:59;;;;;;;8.77;4.07;;;;;;;1.42;100.00;98621.78;5096494;28;20215;-68
2022/01/31 00:12:30;;;;;;;8.83;3.63;;;;;;;1.40;100.00;98623.56;5099241;28;20234;-68
2022/01/31 00:15:02;;;;;;;9.70;3.27;;;;;;;1.37;100.00;98634.06;5082660;28;20347;-68
2022/01/31 00:17:28;;;;;;;9.80;3.93;;;;;;;1.37;100.00;98634.06;5096509;28;20214;-68
2022/01/31 00:19:55;;;;;;;9.83;4.90;;;;;;;1.37;100.00;98618.44;5096457;28;20211;-68
2022/01/31 00:22:21;;;;;;;9.37;3.90;;;;;;;1.39;100.00;98621.00;5098575;28;20218;-68
2022/01/31 00:24:50;;;;;;;9.17;4.10;;;;;;;1.37;100.00;98599.34;5096362;28;20233;-68
2022/01/31 00:27:16;;;;;;;11.80;4.40;;;;;;;1.39;100.00;98593.22;5096388;28;20207;-68
2022/01/31 00:29:43;;;;;;;7.63;3.77;;;;;;;1.38;100.00;98594.13;5096070;28;20218;-68
2022/01/31 00:32:09;;;;;;;9.43;4.47;;;;;;;1.45;100.00;98585.25;5096464;28;20212;-68
2022/01/31 00:34:36;;;;;;;7.57;4.20;;;;;;;1.55;100.00;98586.72;5095886;28;20235;-68
2022/01/31 00:37:02;;;;;;;7.87;3.93;;;;;;;1.62;100.00;98580.44;5095877;28;20672;-68
2022/01/31 00:39:33;;;;;;;12.90;4.27;;;;;;;1.73;100.00;98580.16;5095811;28;20219;-68
2022/01/31 00:42:02;;;;;;;13.60;3.67;;;;;;;1.83;100.00;98582.47;5098026;28;20614;-68
2022/01/31 00:44:38;;;;;;;7.93;3.17;;;;;;;1.95;100.00;98581.25;5095925;28;20306;-68
2022/01/31 00:47:16;;;;;;;10.53;4.10;;;;;;;2.02;100.00;98568.00;5095705;28;20571;-68
2022/01/31 00:49:49;;;;;;;8.90;3.73;;;;;;;2.10;100.00;98540.00;5097180;28;20305;-68
2022/01/31 00:52:16;;;;;;;8.10;3.83;;;;;;;2.14;100.00;98544.19;5081815;28;20211;-68
2022/01/31 00:54:42;;;;;;;12.80;5.10;;;;;;;2.19;100.00;98538.84;5095424;28;20241;-68
2022/01/31 00:57:10;;;;;;;8.57;3.40;;;;;;;2.21;100.00;98524.84;5095832;28;20583;-68
2022/01/31 00:59:36;;;;;;;9.70;3.90;;;;;;;2.20;100.00;98512.72;5095821;28;20214;-68
2022/01/31 01:02:03;;;;;;;7.57;4.07;;;;;;;2.17;100.00;98507.63;5095578;28;20210;-68
2022/01/31 01:04:30;;;;;;;12.50;4.00;;;;;;;2.24;100.00;98508.28;5095623;28;20584;-68
2022/01/31 01:06:57;;;;;;;9.23;4.00;;;;;;;2.28;100.00;98504.69;5095394;28;20225;-68
2022/01/31 01:09:23;;;;;;;9.17;4.00;;;;;;;2.31;100.00;98507.19;5097089;28;20630;-68
2022/01/31 01:11:50;;;;;;;8.23;3.80;;;;;;;2.34;100.00;98494.91;5096163;28;20241;-68
2022/01/31 01:14:18;;;;;;;9.10;4.00;;;;;;;2.33;99.92;98493.19;5104171;28;20218;-68
2022/01/31 01:16:44;;;;;;;9.03;3.80;;;;;;;2.32;99.92;98488.03;5095503;28;20211;-68
2022/01/31 01:19:11;;;;;;;12.43;3.90;;;;;;;2.34;100.00;98487.06;5096732;28;20206;-68
2022/01/31 01:21:37;;;;;;;7.50;3.60;;;;;;;2.35;100.00;98478.38;5096076;28;20250;-68
2022/01/31 01:24:04;;;;;;;10.20;4.27;;;;;;;2.39;100.00;98469.53;5093841;28;20218;-68
2022/01/31 01:26:32;;;;;;;10.43;4.17;;;;;;;2.39;100.00;98469.53;5095388;28;20214;-69
2022/01/31 01:28:58;;;;;;;8.03;3.73;;;;;;;2.43;99.84;98463.31;5095912;28;20289;-68
2022/01/31 01:31:27;;;;;;;8.77;4.43;;;;;;;2.41;100.00;98454.72;5096740;28;20214;-68
2022/01/31 01:33:54;;;;;;;7.70;3.70;;;;;;;2.44;100.00;98433.72;5095049;28;20748;-68
2022/01/31 01:36:21;;;;;;;7.97;4.13;;;;;;;2.47;99.92;98430.16;5095269;28;20238;-68
2022/01/31 01:38:47;;;;;;;8.10;3.70;;;;;;;2.48;100.00;98414.47;5095716;28;20214;-68
2022/01/31 01:41:14;;;;;;;6.47;3.90;;;;;;;2.52;99.91;98413.44;5096553;28;20694;-68
2022/01/31 01:43:41;;;;;;;9.23;3.77;;;;;;;2.51;99.59;98409.13;5095023;28;20206;-68
2022/01/31 01:46:07;;;;;;;9.77;4.87;;;;;;;2.52;99.39;98383.91;5094982;28;20214;-68
2022/01/31 01:48:35;;;;;;;9.77;4.90;;;;;;;2.53;99.74;98369.97;5095314;28;20548;-68
2022/01/31 01:51:02;;;;;;;8.93;3.97;;;;;;;2.54;99.69;98338.63;5095494;28;20206;-68
2022/01/31 01:53:29;;;;;;;8.03;3.60;;;;;;;2.58;99.68;98318.50;5097481;28;20218;-68
2022/01/31 01:55:56;;;;;;;6.20;3.87;;;;;;;2.60;98.90;98316.66;5099257;28;20242;-68
2022/01/31 01:58:23;;;;;;;12.90;4.20;;;;;;;2.65;99.09;98315.63;5092235;28;20224;-68
2022/01/31 02:00:58;;;;;;;8.20;3.80;;;;;;;2.66;99.21;98291.22;5095653;28;20221;-68
2022/01/31 02:03:26;;;;;;;7.30;3.70;;;;;;;2.66;99.45;98279.94;5097902;28;20214;-68
2022/01/31 02:05:54;;;;;;;8.03;3.67;;;;;;;2.66;99.78;98275.56;5097972;28;20587;-68
2022/01/31 02:08:21;;;;;;;11.70;4.33;;;;;;;2.64;100.00;98266.94;5097673;28;20227;-68
2022/01/31 02:10:48;;;;;;;6.87;3.43;;;;;;;2.68;100.00;98265.91;5098682;28;20630;-68
2022/01/31 02:13:16;;;;;;;7.40;3.43;;;;;;;2.72;99.65;98249.25;5099251;28;20203;-68
2022/01/31 02:15:45;;;;;;;13.40;3.63;;;;;;;2.67;99.41;98252.91;5097020;28;20242;-67
2022/01/31 02:18:12;;;;;;;7.53;4.20;;;;;;;2.62;100.00;98237.44;5100051;28;20215;-68
2022/01/31 02:20:41;;;;;;;6.93;3.70;;;;;;;2.66;99.93;98236.44;5099348;28;20340;-68
2022/01/31 02:23:08;;;;;;;6.93;3.37;;;;;;;2.65;100.00;98234.75;5098875;28;20211;-68
2022/01/31 02:25:35;;;;;;;10.73;4.17;;;;;;;2.64;99.96;98214.75;5098580;28;20210;-68
2022/01/31 02:28:01;;;;;;;7.87;3.40;;;;;;;2.67;99.87;98219.00;5099493;28;20221;-68
2022/01/31 02:30:28;;;;;;;8.07;4.00;;;;;;;2.70;99.43;98229.34;5099002;28;20217;-68
2022/01/31 02:32:54;;;;;;;8.23;3.93;;;;;;;2.70;99.42;98217.13;5098557;28;20215;-68
2022/01/31 02:35:21;;;;;;;6.00;3.43;;;;;;;2.70;99.52;98214.53;5098341;28;20239;-68
2022/01/31 02:37:49;;;;;;;8.93;3.50;;;;;;;2.79;99.46;98221.16;5099263;28;20218;-68
2022/01/31 02:40:16;;;;;;;8.77;3.70;;;;;;;2.84;99.37;98212.28;5099291;28;20233;-68
2022/01/31 02:42:42;;;;;;;7.50;3.70;;;;;;;2.83;99.04;98220.16;5096503;28;20228;-68
2022/01/31 02:45:09;;;;;;;9.87;3.87;;;;;;;2.88;99.00;98208.63;5098271;28;20218;-68
2022/01/31 02:47:39;;;;;;;9.87;4.20;;;;;;;2.85;98.77;98187.88;5098652;28;20580;-68
2022/01/31 02:50:12;;;;;;;9.33;3.97;;;;;;;2.85;99.23;98176.56;5099243;28;20209;-68
2022/01/31 02:52:45;;;;;;;6.37;4.20;;;;;;;2.83;99.13;98179.25;5097786;28;20298;-68
2022/01/31 02:55:13;;;;;;;5.87;3.50;;;;;;;2.80;99.23;98163.69;5097940;28;20236;-68
2022/01/31 02:57:40;;;;;;;7.00;3.43;;;;;;;2.80;99.29;98142.81;5100131;28;20596;-68
2022/01/31 03:00:10;;;;;;;7.30;3.40;;;;;;;2.77;99.30;98119.47;5097800;28;20225;-68
2022/01/31 03:02:37;;;;;;;6.47;4.00;;;;;;;2.80;99.09;98106.28;5097847;28;20237;-68
2022/01/31 03:05:04;;;;;;;7.50;3.43;;;;;;;2.78;99.01;98112.47;5097565;28;20218;-68
2022/01/31 03:07:31;;;;;;;7.37;3.57;;;;;;;2.76;99.39;98107.31;5099323;28;20206;-68
2022/01/31 03:09:57;;;;;;;4.60;3.33;;;;;;;2.75;99.47;98117.81;5097217;28;20260;-68
2022/01/31 03:12:25;;;;;;;10.73;4.00;;;;;;;2.74;99.12;98111.75;5099770;28;20590;-68
2022/01/31 03:14:51;;;;;;;8.77;3.80;;;;;;;2.75;98.83;98092.56;5098881;28;20241;-68
2022/01/31 03:17:18;;;;;;;7.03;3.70;;;;;;;2.76;98.14;98083.00;5099435;28;20212;-68
2022/01/31 03:19:48;;;;;;;10.13;4.30;;;;;;;2.75;98.39;98070.84;5097382;28;20620;-68
2022/01/31 03:22:19;;;;;;;6.47;3.33;;;;;;;2.69;98.44;98045.84;5097472;28;20588;-68
2022/01/31 03:24:45;;;;;;;8.73;4.67;;;;;;;2.71;98.78;98044.03;5097178;28;20333;-68
2022/01/31 03:27:12;;;;;;;13.13;4.33;;;;;;;2.70;98.61;98039.69;5099733;28;20211;-68
2022/01/31 03:29:40;;;;;;;8.60;3.80;;;;;;;2.78;98.15;98027.22;5097174;28;20221;-68
2022/01/31 03:32:07;;;;;;;8.33;3.40;;;;;;;2.84;97.85;98013.06;5096961;28;20218;-68
2022/01/31 03:34:34;;;;;;;7.03;3.93;;;;;;;2.71;97.98;97999.69;5095492;28;20580;-68
2022/01/31 03:37:00;;;;;;;7.80;3.60;;;;;;;2.85;97.14;97984.31;5099115;28;20700;-68
2022/01/31 03:39:27;;;;;;;6.83;3.77;;;;;;;2.84;97.15;97969.56;5104337;28;20572;-68
2022/01/31 03:41:53;;;;;;;7.27;3.50;;;;;;;2.81;96.96;97990.53;5087197;28;20214;-68
2022/01/31 03:44:20;;;;;;;6.13;3.40;;;;;;;2.89;96.85;97991.06;5096723;28;20218;-68
2022/01/31 03:46:47;;;;;;;7.03;3.70;;;;;;;2.96;96.48;98023.88;5098498;28;20221;-68
2022/01/31 03:49:14;;;;;;;9.27;3.47;;;;;;;3.03;96.16;98030.53;5096898;28;20218;-68
2022/01/31 03:51:40;;;;;;;7.80;4.67;;;;;;;3.12;94.91;98022.31;5097027;28;20227;-68
2022/01/31 03:54:07;;;;;;;6.20;3.13;;;;;;;3.16;95.01;98021.28;5096820;28;20222;-68
2022/01/31 03:56:35;;;;;;;7.07;3.30;;;;;;;3.14;95.08;98012.66;5098145;28;20241;-68
2022/01/31 03:59:02;;;;;;;9.17;3.73;;;;;;;3.14;95.11;98017.88;5097200;28;20208;-68
2022/01/31 04:01:28;;;;;;;9.10;3.47;;;;;;;3.24;94.94;98013.97;5094894;28;20222;-68
2022/01/31 04:03:56;;;;;;;5.77;3.03;;;;;;;3.20;95.31;98001.97;5096790;28;20222;-68
2022/01/31 04:06:24;;;;;;;7.90;3.23;;;;;;;3.24;94.60;97998.28;5097923;28;20211;-68
2022/01/31 04:08:50;;;;;;;8.70;3.90;;;;;;;3.19;94.29;97987.19;5097200;28;20224;-69
2022/01/31 04:11:17;;;;;;;6.60;3.13;;;;;;;3.23;94.25;97993.13;5096588;28;20229;-68
2022/01/31 04:13:43;;;;;;;5.87;3.13;;;;;;;3.14;94.34;97991.78;5096379;28;20695;-68
2022/01/31 04:16:10;;;;;;;7.40;3.93;;;;;;;3.15;94.52;97983.03;5096878;28;20246;-68
2022/01/31 04:18:37;;;;;;;6.93;3.83;;;;;;;3.18;94.17;97993.31;5097651;28;20214;-68
2022/01/31 04:21:04;;;;;;;7.23;3.13;;;;;;;3.22;94.15;97979.25;5096408;28;20301;-68
2022/01/31 04:23:31;;;;;;;9.77;3.20;;;;;;;3.24;93.97;97976.56;5096369;28;20214;-68
2022/01/31 04:26:06;;;;;;;5.33;3.00;;;;;;;3.28;94.24;97971.13;5094740;28;20219;-68
2022/01/31 04:28:40;;;;;;;10.57;3.77;;;;;;;3.28;94.34;97952.84;5094081;28;20334;-68
2022/01/31 04:31:14;;;;;;;9.10;3.53;;;;;;;3.29;94.06;97954.56;5096397;28;20215;-68
2022/01/31 04:33:42;;;;;;;7.90;3.80;;;;;;;3.35;93.58;97959.50;5096198;28;20215;-68
2022/01/31 04:36:13;;;;;;;5.80;3.17;;;;;;;3.33;93.64;97950.03;5098461;28;20230;-68
2022/01/31 04:38:39;;;;;;;11.47;3.50;;;;;;;3.34;93.79;97942.16;5095760;28;20216;-68
2022/01/31 04:41:06;;;;;;;8.20;3.70;;;;;;;3.33;93.75;97937.84;5096043;28;20211;-68
2022/01/31 04:43:33;;;;;;;5.33;3.03;;;;;;;3.34;94.11;97920.38;5096028;28;20207;-68
2022/01/31 04:46:01;;;;;;;6.23;2.50;;;;;;;3.36;93.58;97914.19;5098163;28;20214;-68
2022/01/31 04:48:28;;;;;;;9.27;3.37;;;;;;;3.37;93.84;97904.59;5095887;28;20219;-68
2022/01/31 04:50:55;;;;;;;7.63;2.83;;;;;;;3.40;93.68;97887.03;5095561;28;20687;-68
2022/01/31 04:53:23;;;;;;;6.20;3.10;;;;;;;3.41;93.52;97874.78;5094211;28;20218;-68
2022/01/31 04:55:50;;;;;;;6.63;2.80;;;;;;;3.38;94.02;97854.91;5097945;28;20722;-68
2022/01/31 04:58:19;;;;;;;7.33;3.43;;;;;;;3.43;93.78;97857.31;5095842;28;20210;-68
2022/01/31 05:00:45;;;;;;;8.63;2.90;;;;;;;3.46;93.77;97849.31;5095533;28;20230;-68
2022/01/31 05:03:14;;;;;;;9.07;3.17;;;;;;;3.49;93.14;97846.59;5095825;28;20214;-68
2022/01/31 05:05:41;;;;;;;5.70;3.00;;;;;;;3.44;93.35;97832.88;5093624;28;20247;-68
2022/01/31 05:08:08;;;;;;;11.93;3.37;;;;;;;3.51;93.07;97826.44;5095322;28;20309;-68
2022/01/31 05:10:43;;;;;;;5.77;2.87;;;;;;;3.54;92.61;97818.50;5095215;28;20668;-68
2022/01/31 05:13:09;;;;;;;5.90;2.67;;;;;;;3.61;92.52;97805.03;5104262;28;20206;-68
2022/01/31 05:15:36;;;;;;;6.07;2.80;;;;;;;3.68;92.16;97784.72;5096930;28;20238;-68
2022/01/31 05:18:02;;;;;;;7.53;3.00;;;;;;;3.63;92.12;97774.47;5093583;28;20215;-68
2022/01/31 05:20:29;;;;;;;8.70;3.20;;;;;;;3.69;91.97;97766.34;5095376;28;20668;-68
2022/01/31 05:22:55;;;;;;;6.87;3.03;;;;;;;3.75;92.23;97744.28;5095823;28;20243;-68
2022/01/31 05:25:22;;;;;;;6.67;3.20;;;;;;;3.68;92.23;97751.56;5097483;28;20210;-67
2022/01/31 05:27:50;;;;;;;7.13;3.10;;;;;;;3.75;92.38;97753.00;5097076;28;20237;-68
2022/01/31 05:30:17;;;;;;;7.07;2.70;;;;;;;3.78;92.43;97754.63;5099337;28;20210;-68
2022/01/31 05:32:43;;;;;;;6.33;2.80;;;;;;;3.81;92.04;97760.53;5099624;28;20214;-68
2022/01/31 05:35:10;;;;;;;8.33;3.00;;;;;;;3.82;91.86;97751.78;5096925;28;20214;-68
2022/01/31 05:37:37;;;;;;;5.17;2.83;;;;;;;3.85;91.62;97743.75;5099231;28;21538;-68
2022/01/31 05:40:04;;;;;;;4.67;2.97;;;;;;;3.89;91.28;97732.25;5099534;28;20300;-68
2022/01/31 05:42:30;;;;;;;7.83;3.07;;;;;;;3.94;91.15;97725.03;5099145;28;20215;-68
2022/01/31 05:44:58;;;;;;;5.90;2.70;;;;;;;3.97;91.02;97711.78;5099482;28;20210;-68
2022/01/31 05:47:25;;;;;;;6.30;2.60;;;;;;;3.88;91.63;97703.56;5099036;28;20219;-68
2022/01/31 05:49:51;;;;;;;4.20;2.70;;;;;;;3.95;91.03;97689.25;5099514;28;20222;-68
2022/01/31 05:52:18;;;;;;;7.43;3.30;;;;;;;3.98;90.97;97678.66;5099090;28;20215;-68
2022/01/31 05:54:45;;;;;;;9.30;3.40;;;;;;;3.94;91.17;97677.97;5101814;28;20221;-68
2022/01/31 05:57:11;;;;;;;6.87;2.40;;;;;;;3.96;90.62;97676.13;5099026;28;20567;-68
2022/01/31 05:59:39;;;;;;;7.27;2.93;;;;;;;4.00;91.18;97674.19;5098852;28;20218;-68
2022/01/31 06:02:07;;;;;;;6.53;3.00;;;;;;;4.06;91.33;97655.59;5099011;28;20668;-68
2022/01/31 06:04:34;;;;;;;9.13;3.33;;;;;;;4.05;90.97;97652.13;5101064;28;20675;-69
2022/01/31 06:07:01;;;;;;;8.60;2.87;;;;;;;4.16;91.40;97652.41;5098997;28;20219;-68
2022/01/31 06:09:28;;;;;;;3.63;2.53;;;;;;;4.18;91.94;97640.13;5098556;28;20225;-68
2022/01/31 06:11:55;;;;;;;7.90;3.10;;;;;;;4.19;91.77;97640.94;5097524;28;20211;-68
2022/01/31 06:14:22;;;;;;;7.40;2.73;;;;;;;4.25;91.88;97641.50;5100823;28;20209;-68
2022/01/31 06:16:48;;;;;;;9.33;3.60;;;;;;;4.26;91.42;97637.09;5098701;28;20238;-68
2022/01/31 06:19:16;;;;;;;10.17;3.60;;;;;;;4.29;92.54;97632.53;5098431;28;20215;-68
2022/01/31 06:21:42;;;;;;;5.87;2.77;;;;;;;4.25;93.96;97620.56;5098744;28;20219;-68
2022/01/31 06:24:10;;;;;;;4.87;2.77;;;;;;;4.18;95.08;97621.81;5100924;28;20218;-68
2022/01/31 06:26:37;;;;;;;9.73;3.30;;;;;;;4.05;96.32;97612.91;5084689;28;20301;-68
2022/01/31 06:29:04;;;;;;;7.47;3.60;;;;;;;4.03;97.30;97617.38;5098214;28;20299;-68
2022/01/31 06:31:30;;;;;;;8.27;3.23;;;;;;;4.03;98.42;97611.31;5098445;28;20213;-68
2022/01/31 06:33:57;;;;;;;9.97;3.00;;;;;;;3.96;100.00;97613.38;5100332;28;20212;-68
2022/01/31 06:36:25;;;;;;;8.40;3.23;;;;;;;3.89;100.00;97611.16;5096539;28;20231;-68
2022/01/31 06:38:51;;;;;;;5.70;2.97;;;;;;;3.87;100.00;97613.00;5097770;28;20211;-68
2022/01/31 06:41:19;;;;;;;5.93;3.00;;;;;;;3.88;100.00;97606.84;5098248;28;20331;-68
2022/01/31 06:43:46;;;;;;;9.87;3.53;;;;;;;3.88;100.00;97623.38;5099814;28;20598;-68
2022/01/31 06:46:13;;;;;;;5.63;3.10;;;;;;;3.77;100.00;97617.84;5098345;28;20218;-68
2022/01/31 06:48:40;;;;;;;8.20;3.17;;;;;;;3.71;100.00;97622.53;5098122;28;20235;-68
2022/01/31 06:51:07;;;;;;;8.80;3.03;;;;;;;3.64;100.00;97628.97;5098067;28;20215;-68
2022/01/31 06:53:35;;;;;;;8.07;3.57;;;;;;;3.59;100.00;97621.38;5099340;28;20223;-68
2022/01/31 06:56:02;;;;;;;6.87;3.47;;;;;;;3.57;100.00;97628.47;5098476;28;20218;-68
2022/01/31 06:58:28;;;;;;;10.23;3.70;;;;;;;3.53;100.00;97626.91;5089716;28;20591;-69
2022/01/31 07:00:56;;;;;;;10.97;3.90;;;;;;;3.51;100.00;97633.13;5091093;28;20211;-69
2022/01/31 07:03:22;;;;;;;6.70;3.50;;;;;;;3.51;100.00;97627.91;5097754;28;20214;-68
2022/01/31 07:05:49;;;;;;;13.23;4.00;;;;;;;3.50;100.00;97634.91;5098756;28;20222;-68
2022/01/31 07:08:16;;;;;;;6.27;3.10;;;;;;;3.50;100.00;97640.13;5097593;28;20218;-68
2022/01/31 07:10:50;;;;;;;6.73;3.50;;;;;;;3.52;100.00;97637.44;5097751;28;20211;-68
2022/01/31 07:13:34;;;;;;;9.30;3.40;;;;;;;3.54;100.00;97636.44;5107446;28;20205;-68
2022/01/31 07:16:01;;;;;;;5.17;3.30;;;;;;;3.54;100.00;97641.66;5085815;28;20243;-69
2022/01/31 07:18:27;;;;;;;6.27;3.03;;;;;;;3.56;100.00;97624.13;5097633;28;20614;-68
2022/01/31 07:20:55;;;;;;;8.07;3.47;;;;;;;3.55;100.00;97632.91;5097784;28;20214;-68
2022/01/31 07:23:26;;;;;;;6.93;3.27;;;;;;;3.53;100.00;97631.28;5095487;28;20214;-68
2022/01/31 07:25:54;;;;;;;3.70;2.60;;;;;;;3.54;100.00;97635.59;5097300;28;20219;-68
2022/01/31 07:28:21;;;;;;;6.00;2.80;;;;;;;3.61;100.00;97624.75;5095672;28;20215;-69
2022/01/31 07:30:49;;;;;;;5.03;3.40;;;;;;;3.61;100.00;97631.78;5097536;28;20219;-69
2022/01/31 07:33:17;;;;;;;7.03;3.20;;;;;;;3.54;100.00;97640.84;5098667;28;20210;-69
2022/01/31 07:35:46;;;;;;;7.33;2.90;;;;;;;3.59;100.00;97631.84;5096841;28;20211;-69
2022/01/31 07:38:13;;;;;;;6.37;2.70;;;;;;;3.55;100.00;97627.66;5097055;28;20235;-68
2022/01/31 07:40:40;;;;;;;5.40;2.67;;;;;;;3.54;100.00;97635.59;5097255;28;20218;-69
2022/01/31 07:43:08;;;;;;;9.93;2.77;;;;;;;3.55;100.00;97638.13;5098269;28;20241;-69
2022/01/31 07:45:35;;;;;;;6.50;2.77;;;;;;;3.57;100.00;97635.44;5096855;28;20675;-69
2022/01/31 07:48:01;;;;;;;5.43;2.60;;;;;;;3.56;100.00;97631.97;5096949;28;20219;-69
2022/01/31 07:50:30;;;;;;;5.03;2.60;;;;;;;3.56;100.00;97639.81;5096382;28;20221;-69
2022/01/31 07:52:57;;;;;;;4.57;2.70;;;;;;;3.56;100.00;97637.19;5098183;28;20240;-69
2022/01/31 07:55:23;;;;;;;9.90;3.47;;;;;;;3.56;100.00;97639.81;5095100;28;20222;-69
2022/01/31 07:57:50;;;;;;;5.40;2.30;;;;;;;3.60;100.00;97630.91;5106873;28;20707;-69
2022/01/31 08:00:19;;;;;;;6.93;2.97;;;;;;;3.64;100.00;97642.91;5083700;28;20223;-68
2022/01/31 08:02:46;;;;;;;4.13;2.20;;;;;;;3.69;100.00;97640.06;5078238;28;20244;-68
2022/01/31 08:05:12;;;;;;;6.07;2.23;;;;;;;3.71;100.00;97635.59;5085121;28;20207;-69
2022/01/31 08:07:39;;;;;;;2.83;1.77;;;;;;;3.71;100.00;97639.06;5096710;28;20219;-68
2022/01/31 08:10:07;;;;;;;3.50;1.80;;;;;;;3.75;100.00;97648.44;5096608;28;20206;-68
2022/01/31 08:12:36;;;;;;;3.70;2.00;;;;;;;3.76;100.00;97664.97;5097516;28;20209;-68
2022/01/31 08:15:06;;;;;;;1.93;1.30;;;;;;;3.80;100.00;97663.91;5084606;28;20709;-68
2022/01/31 08:17:35;;;;;;;4.43;2.10;;;;;;;3.80;100.00;97659.50;5096234;28;20247;-68
2022/01/31 08:20:01;;;;;;;2.53;1.77;;;;;;;3.83;100.00;97658.50;5095520;28;20215;-68
2022/01/31 08:22:28;;;;;;;3.20;1.70;;;;;;;3.79;100.00;97651.75;5097544;28;20210;-68
2022/01/31 08:24:54;;;;;;;3.10;1.37;;;;;;;3.83;100.00;97648.03;5096163;28;20219;-69
2022/01/31 08:27:22;;;;;;;1.53;1.20;;;;;;;3.85;100.00;97660.13;5096193;28;20221;-68
2022/01/31 08:29:48;;;;;;;1.60;1.20;;;;;;;3.90;100.00;97658.13;5096558;28;20651;-68
2022/01/31 08:32:18;;;;;;;1.60;1.03;;;;;;;3.94;100.00;97667.53;5097738;28;20222;-68
2022/01/31 08:37:30;;;;;;;2.10;1.00;;;;;;;4.05;100.00;97666.97;5095867;28;20280;-68
2022/01/31 08:39:57;;;;;;;1.53;1.00;;;;;;;4.07;100.00;97662.50;5098045;28;20213;-68
2022/01/31 08:42:23;;;;;;;1.07;0.80;;;;;;;4.11;100.00;97664.91;5095935;28;20208;-68
2022/01/31 08:44:50;;;;;;;1.00;0.80;;;;;;;4.17;100.00;97654.09;5095856;28;20220;-69
2022/01/31 08:47:17;;;;;;;1.70;1.20;;;;;;;4.31;100.00;97641.16;5094272;28;20215;-69
2022/01/31 08:49:43;;;;;;;2.40;1.20;;;;;;;4.41;100.00;97650.22;5097813;28;20215;-68
2022/01/31 08:52:11;;;;;;;2.83;1.30;;;;;;;4.47;100.00;97628.97;5095925;28;20222;-68
2022/01/31 08:54:38;;;;;;;2.77;1.37;;;;;;;4.47;100.00;97647.28;5095985;28;20225;-68
2022/01/31 08:57:05;;;;;;;1.77;1.20;;;;;;;4.47;100.00;97636.81;5095782;28;20235;-68
2022/01/31 08:59:32;;;;;;;2.87;1.80;;;;;;;4.49;100.00;97624.50;5097836;28;20214;-68
2022/01/31 09:02:06;;;;;;;1.83;1.30;;;;;;;4.48;100.00;97606.28;5081400;28;20211;-68
2022/01/31 09:04:41;;;;;;;2.50;1.50;;;;;;;4.44;100.00;97605.59;5095807;28;20221;-68
2022/01/31 09:07:07;;;;;;;1.60;1.40;;;;;;;4.38;100.00;97608.53;5095557;28;20214;-68
2022/01/31 09:09:35;;;;;;;2.50;1.63;;;;;;;4.26;100.00;97611.78;5097716;28;20214;-68
2022/01/31 09:12:03;;;;;;;3.23;1.53;;;;;;;4.22;100.00;97598.97;5093807;28;20211;-68
2022/01/31 09:14:29;;;;;;;3.90;1.50;;;;;;;4.38;100.00;97600.69;5100248;28;20286;-67
2022/01/31 09:16:56;;;;;;;1.70;1.60;;;;;;;4.70;100.00;97602.41;5080681;28;20306;-67
2022/01/31 09:19:22;;;;;;;2.23;1.67;;;;;;;5.02;100.00;97598.84;5091496;28;20695;-66
2022/01/31 09:21:49;;;;;;;1.87;1.50;;;;;;;5.23;100.00;97608.16;5095532;28;20590;-66
2022/01/31 09:24:15;;;;;;;3.67;1.70;;;;;;;5.40;99.64;97615.06;5095415;28;20215;-66
2022/01/31 09:26:43;;;;;;;3.10;1.30;;;;;;;5.49;98.09;97610.13;5095282;28;20219;-66
2022/01/31 09:29:10;;;;;;;2.00;1.40;;;;;;;5.53;97.64;97622.13;5086505;28;20674;-66
2022/01/31 09:31:36;;;;;;;2.13;1.57;;;;;;;5.54;95.92;97613.34;5095583;28;20211;-67
2022/01/31 09:34:04;;;;;;;1.30;1.20;;;;;;;5.55;94.41;97615.03;5095253;28;20223;-66
2022/01/31 09:36:30;;;;;;;1.50;1.40;;;;;;;5.58;95.97;97614.84;5095305;28;20216;-67
2022/01/31 09:38:57;;;;;;;1.47;1.10;;;;;;;5.65;96.96;97616.19;5095541;28;20245;-67
2022/01/31 09:41:26;;;;;;;1.67;1.30;;;;;;;5.77;94.93;97609.38;5095137;28;20217;-67
2022/01/31 09:46:52;;;;;;;2.43;1.20;;;;;;;5.82;92.67;97613.47;5096733;28;20214;-67
2022/01/31 09:49:22;;;;;;;1.47;1.10;;;;;;;5.72;93.64;97607.03;5082256;28;20685;-67
2022/01/31 09:51:49;;;;;;;2.00;1.40;;;;;;;5.61;93.99;97612.03;5095280;28;20212;-67
2022/01/31 09:54:16;;;;;;;2.43;1.50;;;;;;;5.54;94.09;97608.09;5095218;28;20213;-67
2022/01/31 09:56:43;;;;;;;1.73;1.50;;;;;;;5.48;94.05;97618.06;5095141;28;20215;-66
2022/01/31 09:59:13;;;;;;;1.30;1.20;;;;;;;5.37;93.67;97616.06;5093569;28;20243;-67
2022/01/31 10:01:42;;;;;;;4.07;1.40;;;;;;;5.36;92.78;97618.75;5093447;28;20689;-67
2022/01/31 10:04:14;;;;;;;2.30;1.30;;;;;;;5.32;92.91;97625.13;5092139;28;20216;-67
2022/01/31 10:06:43;;;;;;;2.17;1.67;;;;;;;5.28;93.14;97624.47;5095174;28;20448;-67
2022/01/31 10:09:14;;;;;;;2.30;1.30;;;;;;;5.30;93.21;97617.34;5094023;28;20246;-67
2022/01/31 10:11:46;;;;;;;3.60;1.63;;;;;;;5.37;93.97;97621.31;5093606;28;20263;-67
2022/01/31 10:17:08;;;;;;;3.10;1.70;;;;;;;5.45;93.66;97634.81;5086369;28;20218;-67
2022/01/31 10:19:43;;;;;;;2.80;1.50;;;;;;;5.48;92.77;97623.31;5097146;28;20210;-67
2022/01/31 10:22:12;;;;;;;3.90;1.63;;;;;;;5.45;93.75;97628.75;5099525;28;20684;-67
2022/01/31 10:24:40;;;;;;;4.60;2.40;;;;;;;5.49;92.23;97615.38;5097400;28;20220;-66
2022/01/31 10:27:12;;;;;;;4.27;1.90;;;;;;;5.42;94.05;97608.78;5097330;28;20584;-66
2022/01/31 10:29:40;;;;;;;2.93;1.70;;;;;;;5.40;93.20;97610.66;5096961;28;20231;-66
2022/01/31 10:32:09;;;;;;;3.57;1.67;;;;;;;5.38;92.61;97606.44;5097988;28;20215;-66
2022/01/31 10:34:39;;;;;;;2.73;1.50;;;;;;;5.36;93.09;97596.03;5096780;28;20304;-67
2022/01/31 10:37:09;;;;;;;3.53;1.70;;;;;;;5.34;93.38;97591.81;5097017;28;20297;-66
2022/01/31 10:54:00;;;;;;;2.17;1.43;;;;;;;5.44;93.13;97580.72;5095504;28;20624;-67
2022/01/31 10:56:37;;;;;;;4.03;1.70;;;;;;;5.44;92.78;97569.41;5094603;28;20712;-67
2022/01/31 10:59:06;;;;;;;3.23;1.60;;;;;;;5.49;91.49;97577.84;5096602;28;20237;-67
2022/01/31 11:01:37;;;;;;;5.43;1.80;;;;;;;5.63;90.90;97583.13;5098979;28;20623;-67
2022/01/31 11:04:07;;;;;;;4.93;1.60;;;;;;;5.63;90.02;97581.34;5096576;28;20297;-68
2022/01/31 11:06:34;;;;;;;2.53;1.80;;;;;;;5.63;90.06;97576.09;5096500;28;20598;-67
2022/01/31 11:09:03;;;;;;;4.77;1.70;;;;;;;5.66;89.48;97565.44;5096448;28;20209;-67
2022/01/31 11:11:31;;;;;;;3.03;1.87;;;;;;;5.72;88.62;97565.09;5094141;28;20233;-68
2022/01/31 11:13:59;;;;;;;3.43;1.70;;;;;;;5.77;88.99;97570.06;5099641;28;20222;-68
2022/01/31 11:16:25;;;;;;;4.43;1.90;;;;;;;5.76;89.12;97563.13;5085072;28;20270;-68
2022/01/31 11:18:57;;;;;;;3.60;1.70;;;;;;;5.78;87.55;97569.97;5090856;28;20709;-67
2022/01/31 11:21:28;;;;;;;2.17;1.30;;;;;;;5.88;86.86;97559.81;5078367;28;20633;-67
2022/01/31 11:24:01;;;;;;;4.83;1.93;;;;;;;5.89;85.82;97570.22;5080465;28;20618;-67
2022/01/31 11:26:35;;;;;;;2.17;1.40;;;;;;;5.88;84.50;97560.66;5093174;28;20251;-67
2022/01/31 11:29:04;;;;;;;3.50;1.77;;;;;;;5.91;86.11;97565.72;5101277;28;20216;-67
2022/01/31 11:31:30;;;;;;;3.70;1.43;;;;;;;5.93;86.71;97561.22;5103286;28;20214;-67
2022/01/31 11:33:59;;;;;;;4.60;1.67;;;;;;;5.86;88.11;97562.50;5096222;28;20216;-67
2022/01/31 11:36:25;;;;;;;2.53;1.50;;;;;;;5.79;87.91;97571.66;5098697;28;20221;-69
2022/01/31 11:38:52;;;;;;;3.23;1.47;;;;;;;5.78;87.14;97580.44;5101915;28;20236;-67
2022/01/31 11:41:19;;;;;;;3.53;1.50;;;;;;;5.75;88.13;97585.84;5103160;28;20223;-67
2022/01/31 11:43:52;;;;;;;4.23;1.37;;;;;;;5.66;89.34;97568.06;5098288;28;20210;-68
2022/01/31 11:46:23;;;;;;;1.53;1.20;;;;;;;5.59;91.92;97579.00;5099335;28;20215;-67
2022/01/31 11:48:52;;;;;;;3.53;1.50;;;;;;;5.56;92.62;97574.75;5103464;28;20307;-66
2022/01/31 11:51:21;;;;;;;2.37;1.10;;;;;;;5.47;94.15;97593.66;5099746;28;20299;-67
2022/01/31 11:53:49;;;;;;;2.90;1.27;;;;;;;5.42;92.54;97572.09;5099032;28;20218;-67
2022/01/31 11:56:18;;;;;;;2.83;1.20;;;;;;;5.35;94.01;97570.78;5099269;28;20274;-67
2022/01/31 11:58:47;;;;;;;3.93;1.60;;;;;;;5.34;93.97;97555.13;5089034;28;20238;-67
2022/01/31 12:01:14;;;;;;;2.70;1.40;;;;;;;5.30;93.99;97562.34;5100799;28;20221;-67
2022/01/31 12:03:52;;;;;;;3.13;1.30;;;;;;;5.25;94.27;97553.88;5098720;28;20212;-68